sensor_id;sensor_type;location;lat;lon;timestamp;temperature;humidity
6696;DHT22;3385;48.928;10.330;2022-07-18T00:00:26;16.00;71.90
6696;DHT22;3385;48.928;10.330;2022-07-18T00:02:51;15.90;72.70
6696;DHT22;3385;48.928;10.330;2022-07-18T00:05:17;15.80;73.50
6696;DHT22;3385;48.928;10.330;2022-07-18T00:07:43;15.60;77.80
6696;DHT22;3385;48.928;10.330;2022-07-18T00:10:09;15.40;78.70
6696;DHT22;3385;48.928;10.330;2022-07-18T00:12:34;15.30;78.70
6696;DHT22;3385;48.928;10.330;2022-07-18T00:15:01;15.30;78.80
6696;DHT22;3385;48.928;10.330;2022-07-18T00:17:27;15.30;77.40
6696;DHT22;3385;48.928;10.330;2022-07-18T00:19:53;15.30;75.80
6696;DHT22;3385;48.928;10.330;2022-07-18T00:22:18;15.30;79.30
6696;DHT22;3385;48.928;10.330;2022-07-18T00:24:44;15.70;80.60
6696;DHT22;3385;48.928;10.330;2022-07-18T00:27:10;15.10;80.20
6696;DHT22;3385;48.928;10.330;2022-07-18T00:29:36;15.00;81.30
6696;DHT22;3385;48.928;10.330;2022-07-18T00:32:04;14.90;81.70
6696;DHT22;3385;48.928;10.330;2022-07-18T00:34:30;14.80;80.90
6696;DHT22;3385;48.928;10.330;2022-07-18T00:36:57;14.80;81.10
6696;DHT22;3385;48.928;10.330;2022-07-18T00:39:23;14.80;80.00
6696;DHT22;3385;48.928;10.330;2022-07-18T00:41:49;14.80;81.30
6696;DHT22;3385;48.928;10.330;2022-07-18T00:44:25;14.90;82.70
6696;DHT22;3385;48.928;10.330;2022-07-18T00:46:53;15.00;82.20
6696;DHT22;3385;48.928;10.330;2022-07-18T00:49:22;15.00;81.80
6696;DHT22;3385;48.928;10.330;2022-07-18T00:51:48;15.00;82.50
6696;DHT22;3385;48.928;10.330;2022-07-18T00:54:14;15.00;80.20
6696;DHT22;3385;48.928;10.330;2022-07-18T00:56:41;15.00;80.90
6696;DHT22;3385;48.928;10.330;2022-07-18T00:59:07;14.80;81.40
6696;DHT22;3385;48.928;10.330;2022-07-18T01:01:33;14.70;81.80
6696;DHT22;3385;48.928;10.330;2022-07-18T01:04:41;14.60;82.50
6696;DHT22;3385;48.928;10.330;2022-07-18T01:07:00;14.50;83.50
6696;DHT22;3385;48.928;10.330;2022-07-18T01:09:26;14.50;83.00
6696;DHT22;3385;48.928;10.330;2022-07-18T01:11:51;14.40;83.10
6696;DHT22;3385;48.928;10.330;2022-07-18T01:14:17;14.40;83.60
6696;DHT22;3385;48.928;10.330;2022-07-18T01:16:43;14.30;83.30
6696;DHT22;3385;48.928;10.330;2022-07-18T01:19:10;14.30;81.60
6696;DHT22;3385;48.928;10.330;2022-07-18T01:21:36;14.30;81.50
6696;DHT22;3385;48.928;10.330;2022-07-18T01:24:03;14.30;82.10
6696;DHT22;3385;48.928;10.330;2022-07-18T01:26:28;14.30;82.80
6696;DHT22;3385;48.928;10.330;2022-07-18T01:28:54;14.30;82.00
6696;DHT22;3385;48.928;10.330;2022-07-18T01:31:20;14.30;81.00
6696;DHT22;3385;48.928;10.330;2022-07-18T01:33:46;14.40;80.80
6696;DHT22;3385;48.928;10.330;2022-07-18T01:36:12;14.40;80.80
6696;DHT22;3385;48.928;10.330;2022-07-18T01:38:38;14.50;81.50
6696;DHT22;3385;48.928;10.330;2022-07-18T01:41:05;14.50;81.60
6696;DHT22;3385;48.928;10.330;2022-07-18T01:43:31;14.40;81.30
6696;DHT22;3385;48.928;10.330;2022-07-18T01:45:56;14.40;82.30
6696;DHT22;3385;48.928;10.330;2022-07-18T01:48:23;14.30;83.00
6696;DHT22;3385;48.928;10.330;2022-07-18T01:50:50;14.30;83.10
6696;DHT22;3385;48.928;10.330;2022-07-18T01:53:16;14.40;83.00
6696;DHT22;3385;48.928;10.330;2022-07-18T01:55:42;14.40;82.80
6696;DHT22;3385;48.928;10.330;2022-07-18T01:58:07;14.30;83.40
6696;DHT22;3385;48.928;10.330;2022-07-18T02:00:33;14.30;84.20
6696;DHT22;3385;48.928;10.330;2022-07-18T02:02:59;14.20;84.10
6696;DHT22;3385;48.928;10.330;2022-07-18T02:05:25;14.20;84.00
6696;DHT22;3385;48.928;10.330;2022-07-18T02:07:50;14.20;82.30
6696;DHT22;3385;48.928;10.330;2022-07-18T02:10:19;14.10;82.60
6696;DHT22;3385;48.928;10.330;2022-07-18T02:12:45;14.20;84.00
6696;DHT22;3385;48.928;10.330;2022-07-18T02:15:12;14.20;84.10
6696;DHT22;3385;48.928;10.330;2022-07-18T02:17:38;14.20;79.70
6696;DHT22;3385;48.928;10.330;2022-07-18T02:20:06;14.20;79.70
6696;DHT22;3385;48.928;10.330;2022-07-18T02:22:32;14.30;80.00
6696;DHT22;3385;48.928;10.330;2022-07-18T02:24:58;14.20;83.10
6696;DHT22;3385;48.928;10.330;2022-07-18T02:27:24;14.10;84.20
6696;DHT22;3385;48.928;10.330;2022-07-18T02:29:50;13.90;84.70
6696;DHT22;3385;48.928;10.330;2022-07-18T02:32:16;13.80;85.50
6696;DHT22;3385;48.928;10.330;2022-07-18T02:34:42;13.70;85.00
6696;DHT22;3385;48.928;10.330;2022-07-18T02:37:08;13.70;82.90
6696;DHT22;3385;48.928;10.330;2022-07-18T02:39:34;13.70;82.60
6696;DHT22;3385;48.928;10.330;2022-07-18T02:42:00;13.70;83.10
6696;DHT22;3385;48.928;10.330;2022-07-18T02:44:26;13.70;84.40
6696;DHT22;3385;48.928;10.330;2022-07-18T02:46:52;13.70;84.40
6696;DHT22;3385;48.928;10.330;2022-07-18T02:49:18;13.80;83.80
6696;DHT22;3385;48.928;10.330;2022-07-18T02:52:05;13.90;83.10
6696;DHT22;3385;48.928;10.330;2022-07-18T02:54:33;13.90;83.50
6696;DHT22;3385;48.928;10.330;2022-07-18T02:56:59;14.00;83.50
6696;DHT22;3385;48.928;10.330;2022-07-18T02:59:26;14.00;83.00
6696;DHT22;3385;48.928;10.330;2022-07-18T03:01:53;14.00;82.70
6696;DHT22;3385;48.928;10.330;2022-07-18T03:04:20;14.10;84.20
6696;DHT22;3385;48.928;10.330;2022-07-18T03:06:46;14.10;82.60
6696;DHT22;3385;48.928;10.330;2022-07-18T03:09:12;14.00;82.00
6696;DHT22;3385;48.928;10.330;2022-07-18T03:11:39;14.00;82.50
6696;DHT22;3385;48.928;10.330;2022-07-18T03:14:05;14.00;82.90
6696;DHT22;3385;48.928;10.330;2022-07-18T03:16:31;13.90;81.90
6696;DHT22;3385;48.928;10.330;2022-07-18T03:18:57;13.90;81.20
6696;DHT22;3385;48.928;10.330;2022-07-18T03:21:22;13.90;80.90
6696;DHT22;3385;48.928;10.330;2022-07-18T03:23:49;13.90;81.20
6696;DHT22;3385;48.928;10.330;2022-07-18T03:26:14;13.90;82.80
6696;DHT22;3385;48.928;10.330;2022-07-18T03:28:40;13.80;83.90
6696;DHT22;3385;48.928;10.330;2022-07-18T03:31:06;13.70;85.40
6696;DHT22;3385;48.928;10.330;2022-07-18T03:33:32;13.60;86.60
6696;DHT22;3385;48.928;10.330;2022-07-18T03:35:58;13.50;87.20
6696;DHT22;3385;48.928;10.330;2022-07-18T03:38:24;13.00;86.90
6696;DHT22;3385;48.928;10.330;2022-07-18T03:40:50;13.50;85.90
6696;DHT22;3385;48.928;10.330;2022-07-18T03:43:16;13.60;85.30
6696;DHT22;3385;48.928;10.330;2022-07-18T03:45:42;13.60;86.20
6696;DHT22;3385;48.928;10.330;2022-07-18T03:48:07;13.70;86.10
6696;DHT22;3385;48.928;10.330;2022-07-18T03:50:33;13.70;86.70
6696;DHT22;3385;48.928;10.330;2022-07-18T03:52:59;13.60;87.50
6696;DHT22;3385;48.928;10.330;2022-07-18T03:55:25;13.60;86.60
6696;DHT22;3385;48.928;10.330;2022-07-18T03:57:51;13.50;87.70
6696;DHT22;3385;48.928;10.330;2022-07-18T04:00:17;13.40;87.40
6696;DHT22;3385;48.928;10.330;2022-07-18T04:02:45;13.30;87.90
6696;DHT22;3385;48.928;10.330;2022-07-18T04:05:12;13.30;88.00
6696;DHT22;3385;48.928;10.330;2022-07-18T04:07:38;13.30;87.90
6696;DHT22;3385;48.928;10.330;2022-07-18T04:10:06;13.40;86.80
6696;DHT22;3385;48.928;10.330;2022-07-18T04:12:33;13.40;86.70
6696;DHT22;3385;48.928;10.330;2022-07-18T04:14:58;13.60;86.90
6696;DHT22;3385;48.928;10.330;2022-07-18T04:17:24;13.60;86.80
6696;DHT22;3385;48.928;10.330;2022-07-18T04:19:51;13.80;85.40
6696;DHT22;3385;48.928;10.330;2022-07-18T04:22:17;13.90;85.90
6696;DHT22;3385;48.928;10.330;2022-07-18T04:24:43;14.00;86.40
6696;DHT22;3385;48.928;10.330;2022-07-18T04:27:09;14.00;84.90
6696;DHT22;3385;48.928;10.330;2022-07-18T04:29:35;14.00;85.20
6696;DHT22;3385;48.928;10.330;2022-07-18T04:32:03;14.00;85.20
6696;DHT22;3385;48.928;10.330;2022-07-18T04:34:29;14.00;85.90
6696;DHT22;3385;48.928;10.330;2022-07-18T04:36:54;14.20;86.60
6696;DHT22;3385;48.928;10.330;2022-07-18T04:39:20;14.30;86.10
6696;DHT22;3385;48.928;10.330;2022-07-18T04:41:46;14.50;84.70
6696;DHT22;3385;48.928;10.330;2022-07-18T04:44:13;14.60;84.90
6696;DHT22;3385;48.928;10.330;2022-07-18T04:46:39;14.80;85.50
6696;DHT22;3385;48.928;10.330;2022-07-18T04:49:05;14.90;88.90
6696;DHT22;3385;48.928;10.330;2022-07-18T04:51:31;14.90;89.80
6696;DHT22;3385;48.928;10.330;2022-07-18T04:53:57;15.00;90.60
6696;DHT22;3385;48.928;10.330;2022-07-18T04:56:23;15.00;91.00
6696;DHT22;3385;48.928;10.330;2022-07-18T04:58:49;14.90;90.60
6696;DHT22;3385;48.928;10.330;2022-07-18T05:01:15;14.90;93.00
6696;DHT22;3385;48.928;10.330;2022-07-18T05:03:41;14.80;91.00
6696;DHT22;3385;48.928;10.330;2022-07-18T05:06:06;14.80;90.90
6696;DHT22;3385;48.928;10.330;2022-07-18T05:08:32;14.80;91.70
6696;DHT22;3385;48.928;10.330;2022-07-18T05:10:58;14.90;91.80
6696;DHT22;3385;48.928;10.330;2022-07-18T05:13:24;15.00;89.40
6696;DHT22;3385;48.928;10.330;2022-07-18T05:15:50;15.30;90.20
6696;DHT22;3385;48.928;10.330;2022-07-18T05:18:16;15.40;91.00
6696;DHT22;3385;48.928;10.330;2022-07-18T05:20:42;15.60;91.10
6696;DHT22;3385;48.928;10.330;2022-07-18T05:23:07;15.80;91.50
6696;DHT22;3385;48.928;10.330;2022-07-18T05:25:34;15.90;92.90
6696;DHT22;3385;48.928;10.330;2022-07-18T05:27:59;16.10;93.20
6696;DHT22;3385;48.928;10.330;2022-07-18T05:30:25;16.20;93.30
6696;DHT22;3385;48.928;10.330;2022-07-18T05:32:51;16.30;94.60
6696;DHT22;3385;48.928;10.330;2022-07-18T05:35:17;16.40;96.10
6696;DHT22;3385;48.928;10.330;2022-07-18T05:37:44;16.50;95.30
6696;DHT22;3385;48.928;10.330;2022-07-18T05:40:12;16.50;92.20
6696;DHT22;3385;48.928;10.330;2022-07-18T05:42:38;16.50;90.50
6696;DHT22;3385;48.928;10.330;2022-07-18T05:45:05;16.50;89.60
6696;DHT22;3385;48.928;10.330;2022-07-18T05:47:31;16.60;90.20
6696;DHT22;3385;48.928;10.330;2022-07-18T05:49:57;16.60;89.40
6696;DHT22;3385;48.928;10.330;2022-07-18T05:52:23;16.60;87.30
6696;DHT22;3385;48.928;10.330;2022-07-18T05:54:49;16.70;90.10
6696;DHT22;3385;48.928;10.330;2022-07-18T05:57:14;16.70;91.00
6696;DHT22;3385;48.928;10.330;2022-07-18T05:59:40;16.90;90.90
6696;DHT22;3385;48.928;10.330;2022-07-18T06:02:06;17.00;90.60
6696;DHT22;3385;48.928;10.330;2022-07-18T06:04:32;17.20;91.20
6696;DHT22;3385;48.928;10.330;2022-07-18T06:06:58;17.30;88.10
6696;DHT22;3385;48.928;10.330;2022-07-18T06:09:24;17.50;83.30
6696;DHT22;3385;48.928;10.330;2022-07-18T06:11:50;17.70;82.20
6696;DHT22;3385;48.928;10.330;2022-07-18T06:14:16;17.90;79.20
6696;DHT22;3385;48.928;10.330;2022-07-18T06:16:41;18.10;75.40
6696;DHT22;3385;48.928;10.330;2022-07-18T06:19:07;18.30;77.30
6696;DHT22;3385;48.928;10.330;2022-07-18T06:21:33;18.50;77.90
6696;DHT22;3385;48.928;10.330;2022-07-18T06:23:59;18.60;75.10
6696;DHT22;3385;48.928;10.330;2022-07-18T06:26:24;18.80;77.00
6696;DHT22;3385;48.928;10.330;2022-07-18T06:28:50;18.90;72.80
6696;DHT22;3385;48.928;10.330;2022-07-18T06:31:16;19.00;69.40
6696;DHT22;3385;48.928;10.330;2022-07-18T06:33:42;19.30;67.90
6696;DHT22;3385;48.928;10.330;2022-07-18T06:36:08;19.40;63.10
6696;DHT22;3385;48.928;10.330;2022-07-18T06:38:38;19.50;62.00
6696;DHT22;3385;48.928;10.330;2022-07-18T06:41:04;19.50;58.00
6696;DHT22;3385;48.928;10.330;2022-07-18T06:43:30;19.60;58.60
6696;DHT22;3385;48.928;10.330;2022-07-18T06:45:56;19.70;58.20
6696;DHT22;3385;48.928;10.330;2022-07-18T06:48:23;19.80;58.40
6696;DHT22;3385;48.928;10.330;2022-07-18T06:50:49;19.90;57.60
6696;DHT22;3385;48.928;10.330;2022-07-18T06:53:15;20.10;57.10
6696;DHT22;3385;48.928;10.330;2022-07-18T06:55:41;20.30;52.40
6696;DHT22;3385;48.928;10.330;2022-07-18T06:58:06;20.50;53.10
6696;DHT22;3385;48.928;10.330;2022-07-18T07:00:32;20.60;52.90
6696;DHT22;3385;48.928;10.330;2022-07-18T07:02:58;20.70;52.10
6696;DHT22;3385;48.928;10.330;2022-07-18T07:05:24;20.90;50.20
6696;DHT22;3385;48.928;10.330;2022-07-18T07:07:49;21.00;53.70
6696;DHT22;3385;48.928;10.330;2022-07-18T07:10:17;21.00;51.60
6696;DHT22;3385;48.928;10.330;2022-07-18T07:12:45;21.20;51.10
6696;DHT22;3385;48.928;10.330;2022-07-18T07:15:11;21.30;54.80
6696;DHT22;3385;48.928;10.330;2022-07-18T07:17:37;21.40;56.20
6696;DHT22;3385;48.928;10.330;2022-07-18T07:20:05;21.50;57.70
6696;DHT22;3385;48.928;10.330;2022-07-18T07:22:32;21.60;53.70
6696;DHT22;3385;48.928;10.330;2022-07-18T07:24:58;21.80;54.60
6696;DHT22;3385;48.928;10.330;2022-07-18T07:27:23;21.90;54.00
6696;DHT22;3385;48.928;10.330;2022-07-18T07:29:49;22.00;53.00
6696;DHT22;3385;48.928;10.330;2022-07-18T07:32:15;22.10;54.90
6696;DHT22;3385;48.928;10.330;2022-07-18T07:34:41;22.20;53.40
6696;DHT22;3385;48.928;10.330;2022-07-18T07:37:07;22.40;55.30
6696;DHT22;3385;48.928;10.330;2022-07-18T07:39:32;22.50;54.80
6696;DHT22;3385;48.928;10.330;2022-07-18T07:41:58;22.70;55.80
6696;DHT22;3385;48.928;10.330;2022-07-18T07:44:24;22.90;56.70
6696;DHT22;3385;48.928;10.330;2022-07-18T07:46:49;23.00;57.30
6696;DHT22;3385;48.928;10.330;2022-07-18T07:49:16;23.10;58.30
6696;DHT22;3385;48.928;10.330;2022-07-18T07:51:42;23.10;58.70
6696;DHT22;3385;48.928;10.330;2022-07-18T07:54:07;23.20;58.00
6696;DHT22;3385;48.928;10.330;2022-07-18T07:56:33;23.30;56.60
6696;DHT22;3385;48.928;10.330;2022-07-18T07:58:59;23.40;57.80
6696;DHT22;3385;48.928;10.330;2022-07-18T08:01:26;23.50;53.70
6696;DHT22;3385;48.928;10.330;2022-07-18T08:03:52;23.60;55.40
6696;DHT22;3385;48.928;10.330;2022-07-18T08:06:18;23.90;54.20
6696;DHT22;3385;48.928;10.330;2022-07-18T08:08:43;24.00;52.90
6696;DHT22;3385;48.928;10.330;2022-07-18T08:11:09;24.10;52.00
6696;DHT22;3385;48.928;10.330;2022-07-18T08:13:35;24.10;52.30
6696;DHT22;3385;48.928;10.330;2022-07-18T08:16:01;24.10;52.40
6696;DHT22;3385;48.928;10.330;2022-07-18T08:18:27;24.20;52.70
6696;DHT22;3385;48.928;10.330;2022-07-18T08:20:52;24.20;53.20
6696;DHT22;3385;48.928;10.330;2022-07-18T08:23:18;24.20;53.70
6696;DHT22;3385;48.928;10.330;2022-07-18T08:25:45;24.30;54.40
6696;DHT22;3385;48.928;10.330;2022-07-18T08:28:12;24.40;53.30
6696;DHT22;3385;48.928;10.330;2022-07-18T08:30:38;24.50;54.70
6696;DHT22;3385;48.928;10.330;2022-07-18T08:33:06;24.70;54.60
6696;DHT22;3385;48.928;10.330;2022-07-18T08:35:32;24.80;53.40
6696;DHT22;3385;48.928;10.330;2022-07-18T08:37:58;24.90;54.20
6696;DHT22;3385;48.928;10.330;2022-07-18T08:40:25;25.00;52.60
6696;DHT22;3385;48.928;10.330;2022-07-18T08:42:54;25.10;54.80
6696;DHT22;3385;48.928;10.330;2022-07-18T08:45:21;25.30;53.30
6696;DHT22;3385;48.928;10.330;2022-07-18T08:47:48;25.50;52.60
6696;DHT22;3385;48.928;10.330;2022-07-18T08:50:14;25.60;53.20
6696;DHT22;3385;48.928;10.330;2022-07-18T08:52:40;25.70;51.40
6696;DHT22;3385;48.928;10.330;2022-07-18T08:55:09;25.80;52.20
6696;DHT22;3385;48.928;10.330;2022-07-18T08:57:36;26.00;51.40
6696;DHT22;3385;48.928;10.330;2022-07-18T09:00:08;26.00;49.50
6696;DHT22;3385;48.928;10.330;2022-07-18T09:02:34;26.10;51.00
6696;DHT22;3385;48.928;10.330;2022-07-18T09:05:02;26.20;47.20
6696;DHT22;3385;48.928;10.330;2022-07-18T09:07:33;26.20;49.30
6696;DHT22;3385;48.928;10.330;2022-07-18T09:10:04;26.20;44.70
6696;DHT22;3385;48.928;10.330;2022-07-18T09:12:31;26.30;45.00
6696;DHT22;3385;48.928;10.330;2022-07-18T09:14:57;26.20;43.90
6696;DHT22;3385;48.928;10.330;2022-07-18T09:17:28;26.10;42.00
6696;DHT22;3385;48.928;10.330;2022-07-18T09:20:06;26.20;44.10
6696;DHT22;3385;48.928;10.330;2022-07-18T09:22:38;26.40;46.50
6696;DHT22;3385;48.928;10.330;2022-07-18T09:25:13;26.50;46.90
6696;DHT22;3385;48.928;10.330;2022-07-18T09:27:45;26.70;45.70
6696;DHT22;3385;48.928;10.330;2022-07-18T09:30:31;26.90;46.50
6696;DHT22;3385;48.928;10.330;2022-07-18T09:35:53;27.50;44.70
6696;DHT22;3385;48.928;10.330;2022-07-18T09:38:27;27.60;42.40
6696;DHT22;3385;48.928;10.330;2022-07-18T09:40:54;27.60;40.50
6696;DHT22;3385;48.928;10.330;2022-07-18T09:43:22;27.50;43.80
6696;DHT22;3385;48.928;10.330;2022-07-18T09:45:57;27.60;44.50
6696;DHT22;3385;48.928;10.330;2022-07-18T09:48:27;27.70;43.30
6696;DHT22;3385;48.928;10.330;2022-07-18T09:50:55;27.80;42.70
6696;DHT22;3385;48.928;10.330;2022-07-18T09:55:58;27.90;42.70
6696;DHT22;3385;48.928;10.330;2022-07-18T09:58:38;27.80;42.50
6696;DHT22;3385;48.928;10.330;2022-07-18T10:01:08;27.90;44.10
6696;DHT22;3385;48.928;10.330;2022-07-18T10:03:36;27.90;41.20
6696;DHT22;3385;48.928;10.330;2022-07-18T10:06:02;27.90;42.10
6696;DHT22;3385;48.928;10.330;2022-07-18T10:08:30;28.00;42.60
6696;DHT22;3385;48.928;10.330;2022-07-18T10:10:58;28.10;41.50
6696;DHT22;3385;48.928;10.330;2022-07-18T10:13:28;28.20;41.10
6696;DHT22;3385;48.928;10.330;2022-07-18T10:15:55;28.20;40.50
6696;DHT22;3385;48.928;10.330;2022-07-18T10:18:23;28.20;42.80
6696;DHT22;3385;48.928;10.330;2022-07-18T10:21:12;28.40;42.80
6696;DHT22;3385;48.928;10.330;2022-07-18T10:23:47;28.50;41.60
6696;DHT22;3385;48.928;10.330;2022-07-18T10:26:18;28.70;43.40
6696;DHT22;3385;48.928;10.330;2022-07-18T10:31:30;28.80;41.60
6696;DHT22;3385;48.928;10.330;2022-07-18T10:36:34;28.50;41.40
6696;DHT22;3385;48.928;10.330;2022-07-18T10:39:13;28.60;42.30
6696;DHT22;3385;48.928;10.330;2022-07-18T10:44:37;29.10;41.00
6696;DHT22;3385;48.928;10.330;2022-07-18T10:47:07;29.20;39.80
6696;DHT22;3385;48.928;10.330;2022-07-18T10:49:59;29.20;40.20
6696;DHT22;3385;48.928;10.330;2022-07-18T10:57:40;29.60;39.20
6696;DHT22;3385;48.928;10.330;2022-07-18T11:00:08;29.40;40.80
6696;DHT22;3385;48.928;10.330;2022-07-18T11:16:07;30.60;38.90
6696;DHT22;3385;48.928;10.330;2022-07-18T11:21:19;30.60;39.00
6696;DHT22;3385;48.928;10.330;2022-07-18T11:23:48;30.70;40.00
6696;DHT22;3385;48.928;10.330;2022-07-18T11:26:23;30.90;37.60
6696;DHT22;3385;48.928;10.330;2022-07-18T11:28:57;31.00;37.80
6696;DHT22;3385;48.928;10.330;2022-07-18T11:31:25;31.20;38.90
6696;DHT22;3385;48.928;10.330;2022-07-18T11:33:51;31.50;38.80
6696;DHT22;3385;48.928;10.330;2022-07-18T11:36:20;32.00;37.60
6696;DHT22;3385;48.928;10.330;2022-07-18T11:41:16;32.40;38.00
6696;DHT22;3385;48.928;10.330;2022-07-18T11:43:44;32.40;37.90
6696;DHT22;3385;48.928;10.330;2022-07-18T11:46:12;32.30;37.00
6696;DHT22;3385;48.928;10.330;2022-07-18T11:48:39;32.40;37.50
6696;DHT22;3385;48.928;10.330;2022-07-18T11:51:19;32.60;37.20
6696;DHT22;3385;48.928;10.330;2022-07-18T11:53:45;32.70;36.60
6696;DHT22;3385;48.928;10.330;2022-07-18T11:56:12;32.90;37.80
6696;DHT22;3385;48.928;10.330;2022-07-18T11:58:39;33.30;37.20
6696;DHT22;3385;48.928;10.330;2022-07-18T12:01:05;33.70;34.90
6696;DHT22;3385;48.928;10.330;2022-07-18T12:03:34;34.10;35.00
6696;DHT22;3385;48.928;10.330;2022-07-18T12:06:10;33.90;33.40
6696;DHT22;3385;48.928;10.330;2022-07-18T12:08:43;33.70;34.60
6696;DHT22;3385;48.928;10.330;2022-07-18T12:16:23;34.40;33.50
6696;DHT22;3385;48.928;10.330;2022-07-18T12:18:51;34.80;34.70
6696;DHT22;3385;48.928;10.330;2022-07-18T12:21:17;35.60;32.30
6696;DHT22;3385;48.928;10.330;2022-07-18T12:23:43;36.40;32.90
6696;DHT22;3385;48.928;10.330;2022-07-18T12:26:09;36.60;32.40
6696;DHT22;3385;48.928;10.330;2022-07-18T12:28:34;36.80;32.10
6696;DHT22;3385;48.928;10.330;2022-07-18T12:31:00;36.80;32.00
6696;DHT22;3385;48.928;10.330;2022-07-18T12:33:26;36.80;31.20
6696;DHT22;3385;48.928;10.330;2022-07-18T12:35:57;37.30;30.90
6696;DHT22;3385;48.928;10.330;2022-07-18T12:38:23;38.00;30.50
6696;DHT22;3385;48.928;10.330;2022-07-18T12:43:27;38.80;29.40
6696;DHT22;3385;48.928;10.330;2022-07-18T12:45:54;39.30;28.70
6696;DHT22;3385;48.928;10.330;2022-07-18T12:48:21;39.80;28.80
6696;DHT22;3385;48.928;10.330;2022-07-18T12:53:24;40.40;27.70
6696;DHT22;3385;48.928;10.330;2022-07-18T12:55:50;40.50;28.00
6696;DHT22;3385;48.928;10.330;2022-07-18T12:58:16;40.40;27.70
6696;DHT22;3385;48.928;10.330;2022-07-18T13:00:42;40.60;27.80
6696;DHT22;3385;48.928;10.330;2022-07-18T13:03:09;40.70;28.60
6696;DHT22;3385;48.928;10.330;2022-07-18T13:05:35;40.60;26.90
6696;DHT22;3385;48.928;10.330;2022-07-18T13:08:01;40.10;27.30
6696;DHT22;3385;48.928;10.330;2022-07-18T13:10:27;40.20;27.60
6696;DHT22;3385;48.928;10.330;2022-07-18T13:12:53;39.70;27.80
6696;DHT22;3385;48.928;10.330;2022-07-18T13:15:19;39.60;27.40
6696;DHT22;3385;48.928;10.330;2022-07-18T13:17:47;39.60;28.10
6696;DHT22;3385;48.928;10.330;2022-07-18T13:20:15;39.70;27.20
6696;DHT22;3385;48.928;10.330;2022-07-18T13:22:40;40.10;27.70
6696;DHT22;3385;48.928;10.330;2022-07-18T13:25:08;40.70;27.10
6696;DHT22;3385;48.928;10.330;2022-07-18T13:27:35;40.90;27.30
6696;DHT22;3385;48.928;10.330;2022-07-18T13:30:01;40.70;26.50
6696;DHT22;3385;48.928;10.330;2022-07-18T13:32:30;41.00;26.70
6696;DHT22;3385;48.928;10.330;2022-07-18T13:34:56;41.20;26.10
6696;DHT22;3385;48.928;10.330;2022-07-18T13:37:23;40.60;27.00
6696;DHT22;3385;48.928;10.330;2022-07-18T13:39:50;40.50;26.40
6696;DHT22;3385;48.928;10.330;2022-07-18T13:42:16;40.10;26.30
6696;DHT22;3385;48.928;10.330;2022-07-18T13:44:43;39.40;27.30
6696;DHT22;3385;48.928;10.330;2022-07-18T13:47:12;39.50;26.80
6696;DHT22;3385;48.928;10.330;2022-07-18T13:49:38;39.70;27.60
6696;DHT22;3385;48.928;10.330;2022-07-18T13:52:08;40.20;26.30
6696;DHT22;3385;48.928;10.330;2022-07-18T13:54:37;39.80;26.30
6696;DHT22;3385;48.928;10.330;2022-07-18T13:57:06;40.40;26.90
6696;DHT22;3385;48.928;10.330;2022-07-18T13:59:32;40.90;26.30
6696;DHT22;3385;48.928;10.330;2022-07-18T14:01:57;41.00;27.00
6696;DHT22;3385;48.928;10.330;2022-07-18T14:04:23;40.90;26.80
6696;DHT22;3385;48.928;10.330;2022-07-18T14:06:49;40.80;26.20
6696;DHT22;3385;48.928;10.330;2022-07-18T14:09:19;40.80;25.30
6696;DHT22;3385;48.928;10.330;2022-07-18T14:11:47;40.80;25.10
6696;DHT22;3385;48.928;10.330;2022-07-18T14:14:39;40.50;25.80
6696;DHT22;3385;48.928;10.330;2022-07-18T14:17:06;40.60;26.40
6696;DHT22;3385;48.928;10.330;2022-07-18T14:19:32;40.30;26.10
6696;DHT22;3385;48.928;10.330;2022-07-18T14:21:59;40.10;25.90
6696;DHT22;3385;48.928;10.330;2022-07-18T14:24:24;40.10;25.70
6696;DHT22;3385;48.928;10.330;2022-07-18T14:26:50;39.70;25.80
6696;DHT22;3385;48.928;10.330;2022-07-18T14:29:16;39.80;26.00
6696;DHT22;3385;48.928;10.330;2022-07-18T14:31:41;40.00;26.20
6696;DHT22;3385;48.928;10.330;2022-07-18T14:34:07;40.10;25.80
6696;DHT22;3385;48.928;10.330;2022-07-18T14:36:33;40.10;25.50
6696;DHT22;3385;48.928;10.330;2022-07-18T14:38:58;40.50;25.70
6696;DHT22;3385;48.928;10.330;2022-07-18T14:41:24;40.90;25.40
6696;DHT22;3385;48.928;10.330;2022-07-18T14:43:50;41.10;25.50
6696;DHT22;3385;48.928;10.330;2022-07-18T14:46:16;40.50;24.90
6696;DHT22;3385;48.928;10.330;2022-07-18T14:48:41;40.00;25.70
6696;DHT22;3385;48.928;10.330;2022-07-18T14:51:07;40.20;25.70
6696;DHT22;3385;48.928;10.330;2022-07-18T14:53:33;40.30;25.90
6696;DHT22;3385;48.928;10.330;2022-07-18T14:55:59;40.00;26.10
6696;DHT22;3385;48.928;10.330;2022-07-18T14:58:25;39.70;26.90
6696;DHT22;3385;48.928;10.330;2022-07-18T15:00:50;39.80;26.40
6696;DHT22;3385;48.928;10.330;2022-07-18T15:03:16;40.00;26.50
6696;DHT22;3385;48.928;10.330;2022-07-18T15:05:42;40.60;26.50
6696;DHT22;3385;48.928;10.330;2022-07-18T15:08:08;40.70;25.90
6696;DHT22;3385;48.928;10.330;2022-07-18T15:10:33;40.80;25.30
6696;DHT22;3385;48.928;10.330;2022-07-18T15:12:59;40.70;25.90
6696;DHT22;3385;48.928;10.330;2022-07-18T15:15:25;40.70;25.30
6696;DHT22;3385;48.928;10.330;2022-07-18T15:17:51;40.40;26.10
6696;DHT22;3385;48.928;10.330;2022-07-18T15:20:17;40.30;26.60
6696;DHT22;3385;48.928;10.330;2022-07-18T15:22:43;39.80;25.60
6696;DHT22;3385;48.928;10.330;2022-07-18T15:25:10;39.20;25.90
6696;DHT22;3385;48.928;10.330;2022-07-18T15:27:35;38.40;26.10
6696;DHT22;3385;48.928;10.330;2022-07-18T15:30:01;37.70;27.00
6696;DHT22;3385;48.928;10.330;2022-07-18T15:32:28;37.60;28.00
6696;DHT22;3385;48.928;10.330;2022-07-18T15:34:53;37.60;27.30
6696;DHT22;3385;48.928;10.330;2022-07-18T15:37:19;37.30;26.80
6696;DHT22;3385;48.928;10.330;2022-07-18T15:39:45;36.60;27.30
6696;DHT22;3385;48.928;10.330;2022-07-18T15:42:11;36.30;29.30
6696;DHT22;3385;48.928;10.330;2022-07-18T15:44:36;36.30;28.50
6696;DHT22;3385;48.928;10.330;2022-07-18T15:47:08;36.10;28.30
6696;DHT22;3385;48.928;10.330;2022-07-18T15:49:35;36.20;29.20
6696;DHT22;3385;48.928;10.330;2022-07-18T15:52:02;36.30;29.40
6696;DHT22;3385;48.928;10.330;2022-07-18T15:54:35;36.30;29.00
6696;DHT22;3385;48.928;10.330;2022-07-18T15:57:02;36.30;28.60
6696;DHT22;3385;48.928;10.330;2022-07-18T15:59:28;36.20;28.90
6696;DHT22;3385;48.928;10.330;2022-07-18T16:01:54;36.50;29.20
6696;DHT22;3385;48.928;10.330;2022-07-18T16:04:21;36.60;30.00
6696;DHT22;3385;48.928;10.330;2022-07-18T16:06:47;36.60;29.30
6696;DHT22;3385;48.928;10.330;2022-07-18T16:09:12;36.50;29.20
6696;DHT22;3385;48.928;10.330;2022-07-18T16:11:38;36.30;29.00
6696;DHT22;3385;48.928;10.330;2022-07-18T16:14:07;35.90;28.60
6696;DHT22;3385;48.928;10.330;2022-07-18T16:16:33;35.80;28.80
6696;DHT22;3385;48.928;10.330;2022-07-18T16:18:59;35.70;28.50
6696;DHT22;3385;48.928;10.330;2022-07-18T16:21:25;35.70;28.60
6696;DHT22;3385;48.928;10.330;2022-07-18T16:23:50;35.70;28.50
6696;DHT22;3385;48.928;10.330;2022-07-18T16:26:16;35.70;28.30
6696;DHT22;3385;48.928;10.330;2022-07-18T16:28:42;35.60;28.30
6696;DHT22;3385;48.928;10.330;2022-07-18T16:31:09;35.50;28.00